Flight Track Log - Related Links

Times and Time Zones

All times are in EDT time to prevent confusion due to time zone crossing. See the N200MJ flight status page for this flight to view local times or setup timezone preferences in your user account.


Time Position Orientation Groundspeed Altitude Reporting Facility
EDT Latitude Longitude Course Direction KTS MPH feet Rate Location/Type
Wed 05:08:28 PM 42.2994 -73.7117 359° North 125 144 900  Level Boston Center
Wed 05:09:53 PM 42.3517 -73.7128 257° West 156 180 4,300 2,352 Climbing Boston Center
Wed 05:10:33 PM 42.3450 -73.7519 266° West 166 191 5,800 2,220 Climbing Boston Center
Wed 05:11:33 PM 42.3419 -73.8164 307° West 178 205 8,000 2,100 Climbing Boston Center
Wed 05:12:33 PM 42.3706 -73.8678 304° West 171 197 10,000 2,100 Climbing Boston Center
Wed 05:13:33 PM 42.3992 -73.9244 304° West 171 197 12,200 1,950 Climbing Boston Center
Wed 05:14:33 PM 42.4275 -73.9814 306° West 176 203 13,900 1,850 Climbing Boston Center
Wed 05:15:33 PM 42.4600 -74.0414 310° West 187 215 15,900 1,100 Climbing Boston Center
Wed 05:16:33 PM 42.4986 -74.1044 300° West 198 228 16,100 100 Climbing Boston Center
Wed 05:17:33 PM 42.5308 -74.1814 292° West 234 269 16,100  Level Boston Center
Wed 05:18:33 PM 42.5606 -74.2808 295° West 261 300 16,100  Level Boston Center
Wed 05:19:33 PM 42.5883 -74.3633 293° West 266 306 16,100  Level Boston Center
Wed 05:20:33 PM 42.6200 -74.4631 295° West 266 306 16,100  Level Boston Center
Wed 05:21:33 PM 42.6478 -74.5431 288° West 266 306 16,100  Level Boston Center
Wed 05:22:33 PM 42.6728 -74.6483 281° West 266 306 16,100  Level Boston Center
Wed 05:23:33 PM 42.6856 -74.7392 281° West 266 306 16,100  Level Boston Center
Wed 05:24:33 PM 42.7019 -74.8500 283° West 271 312 16,100  Level Boston Center
Wed 05:25:33 PM 42.7186 -74.9469 282° West 271 312 16,100  Level Boston Center
Wed 05:26:33 PM 42.7333 -75.0436 283° West 271 312 16,100  Level Boston Center
Wed 05:27:33 PM 42.7497 -75.1403 283° West 271 312 16,100  Level Boston Center
Wed 05:28:33 PM 42.7661 -75.2400 281° West 271 312 16,100  Level Boston Center
Wed 05:29:33 PM 42.7803 -75.3369 283° West 271 312 16,100  Level Boston Center
Wed 05:30:33 PM 42.7967 -75.4339 280° West 271 312 16,100  Level Boston Center
Wed 05:32:30 PM 42.8211 -75.6231 280° West 267 307 16,100  Level New York Center

Login

Don't have an account? Register now (free) for customized features, flight alerts, and more!